Allendale, Missouri
Current Conditions -  °F | °C
As of 5:53 AM on Monday 24 Nov 2014 (Local Time) from KLWD Reporting Station
Overcast Overcast  
Wind Chill: 16°   Ceiling: 2800
Heat Index: 29°   Visibility: 10mi
Dew Point: 21°   Wind: 18mph
Humidity: 72%   Direction: 300°WNW
Pressure: 29.5"   Gusts: NA
Location:  40.49°N, 94.29°W
Report Text: KLWD 241153Z AUTO 30016KT 10SM OVC028 M02/M06 A2950 RMK AO2 PK WND 30029/1119 SLP996 70016 T10171061 10028 21017 51020
Loading
Personal Weather Stations






























Interactive Weather Map New forecast layout! Learn more

10-Day Weather Forecast

Advertisements
Track Severe Weather on mobile